sensor_id;sensor_type;location;lat;lon;timestamp;P1;durP1;ratioP1;P2;durP2;ratioP2
7334;SDS011;3708;42.632;23.378;2022-08-06T00:01:05;6.37;;;3.80;;
7334;SDS011;3708;42.632;23.378;2022-08-06T00:03:33;3.60;;;3.30;;
7334;SDS011;3708;42.632;23.378;2022-08-06T00:06:00;4.85;;;3.58;;
7334;SDS011;3708;42.632;23.378;2022-08-06T00:08:27;4.30;;;3.50;;
7334;SDS011;3708;42.632;23.378;2022-08-06T00:10:54;6.67;;;3.40;;
7334;SDS011;3708;42.632;23.378;2022-08-06T00:13:21;5.72;;;3.88;;
7334;SDS011;3708;42.632;23.378;2022-08-06T00:15:48;4.07;;;3.67;;
7334;SDS011;3708;42.632;23.378;2022-08-06T00:18:15;3.80;;;3.40;;
7334;SDS011;3708;42.632;23.378;2022-08-06T00:20:43;5.60;;;3.80;;
7334;SDS011;3708;42.632;23.378;2022-08-06T00:23:10;4.13;;;3.57;;
7334;SDS011;3708;42.632;23.378;2022-08-06T00:25:37;3.90;;;3.30;;
7334;SDS011;3708;42.632;23.378;2022-08-06T00:28:04;5.40;;;3.80;;
7334;SDS011;3708;42.632;23.378;2022-08-06T00:30:31;4.27;;;3.87;;
7334;SDS011;3708;42.632;23.378;2022-08-06T00:33:01;4.78;;;4.10;;
7334;SDS011;3708;42.632;23.378;2022-08-06T00:35:28;4.37;;;3.47;;
7334;SDS011;3708;42.632;23.378;2022-08-06T00:37:56;3.63;;;3.33;;
7334;SDS011;3708;42.632;23.378;2022-08-06T00:40:23;4.30;;;3.53;;
7334;SDS011;3708;42.632;23.378;2022-08-06T00:42:51;4.63;;;3.90;;
7334;SDS011;3708;42.632;23.378;2022-08-06T00:45:18;5.63;;;3.80;;
7334;SDS011;3708;42.632;23.378;2022-08-06T00:47:45;4.93;;;4.27;;
7334;SDS011;3708;42.632;23.378;2022-08-06T00:50:12;6.37;;;4.33;;
7334;SDS011;3708;42.632;23.378;2022-08-06T00:52:39;7.17;;;3.77;;
7334;SDS011;3708;42.632;23.378;2022-08-06T00:55:08;5.80;;;4.25;;
7334;SDS011;3708;42.632;23.378;2022-08-06T00:57:35;6.70;;;4.83;;
7334;SDS011;3708;42.632;23.378;2022-08-06T01:00:02;4.73;;;4.23;;
7334;SDS011;3708;42.632;23.378;2022-08-06T01:02:30;7.40;;;3.92;;
7334;SDS011;3708;42.632;23.378;2022-08-06T01:04:57;5.23;;;3.90;;
7334;SDS011;3708;42.632;23.378;2022-08-06T01:07:24;4.50;;;4.10;;
7334;SDS011;3708;42.632;23.378;2022-08-06T01:09:51;5.38;;;4.03;;
7334;SDS011;3708;42.632;23.378;2022-08-06T01:12:19;4.13;;;3.80;;
7334;SDS011;3708;42.632;23.378;2022-08-06T01:14:46;4.93;;;3.92;;
7334;SDS011;3708;42.632;23.378;2022-08-06T01:17:17;6.37;;;4.17;;
7334;SDS011;3708;42.632;23.378;2022-08-06T01:19:51;3.53;;;3.23;;
7334;SDS011;3708;42.632;23.378;2022-08-06T01:22:42;4.70;;;3.47;;
7334;SDS011;3708;42.632;23.378;2022-08-06T01:25:42;3.40;;;3.10;;
7334;SDS011;3708;42.632;23.378;2022-08-06T01:28:31;3.80;;;3.40;;
7334;SDS011;3708;42.632;23.378;2022-08-06T01:31:02;4.07;;;3.45;;
7334;SDS011;3708;42.632;23.378;2022-08-06T01:33:33;3.93;;;3.53;;
7334;SDS011;3708;42.632;23.378;2022-08-06T01:36:07;5.33;;;3.87;;
7334;SDS011;3708;42.632;23.378;2022-08-06T01:38:39;3.77;;;3.47;;
7334;SDS011;3708;42.632;23.378;2022-08-06T01:41:10;4.37;;;3.90;;
7334;SDS011;3708;42.632;23.378;2022-08-06T01:44:03;4.20;;;3.80;;
7334;SDS011;3708;42.632;23.378;2022-08-06T01:46:32;5.00;;;3.93;;
7334;SDS011;3708;42.632;23.378;2022-08-06T01:49:02;3.60;;;3.07;;
7334;SDS011;3708;42.632;23.378;2022-08-06T01:51:31;5.07;;;3.77;;
7334;SDS011;3708;42.632;23.378;2022-08-06T01:54:01;4.83;;;3.63;;
7334;SDS011;3708;42.632;23.378;2022-08-06T01:56:29;4.23;;;3.83;;
7334;SDS011;3708;42.632;23.378;2022-08-06T01:59:00;4.70;;;3.70;;
7334;SDS011;3708;42.632;23.378;2022-08-06T02:01:31;7.30;;;3.77;;
7334;SDS011;3708;42.632;23.378;2022-08-06T02:04:01;8.43;;;3.87;;
7334;SDS011;3708;42.632;23.378;2022-08-06T02:06:31;3.80;;;3.50;;
7334;SDS011;3708;42.632;23.378;2022-08-06T02:09:01;4.40;;;4.00;;
7334;SDS011;3708;42.632;23.378;2022-08-06T02:11:31;5.43;;;3.93;;
7334;SDS011;3708;42.632;23.378;2022-08-06T02:14:02;8.13;;;4.10;;
7334;SDS011;3708;42.632;23.378;2022-08-06T02:16:32;3.77;;;3.43;;
7334;SDS011;3708;42.632;23.378;2022-08-06T02:19:02;5.53;;;3.70;;
7334;SDS011;3708;42.632;23.378;2022-08-06T02:21:31;7.67;;;4.37;;
7334;SDS011;3708;42.632;23.378;2022-08-06T02:24:01;4.20;;;3.77;;
7334;SDS011;3708;42.632;23.378;2022-08-06T02:26:31;4.27;;;3.87;;
7334;SDS011;3708;42.632;23.378;2022-08-06T02:29:01;7.43;;;4.20;;
7334;SDS011;3708;42.632;23.378;2022-08-06T02:31:31;5.63;;;3.90;;
7334;SDS011;3708;42.632;23.378;2022-08-06T02:33:59;4.60;;;4.07;;
7334;SDS011;3708;42.632;23.378;2022-08-06T02:36:28;6.63;;;3.90;;
7334;SDS011;3708;42.632;23.378;2022-08-06T02:38:59;5.13;;;4.23;;
7334;SDS011;3708;42.632;23.378;2022-08-06T02:41:29;5.10;;;3.93;;
7334;SDS011;3708;42.632;23.378;2022-08-06T02:44:05;4.20;;;3.80;;
7334;SDS011;3708;42.632;23.378;2022-08-06T02:46:43;5.40;;;4.90;;
7334;SDS011;3708;42.632;23.378;2022-08-06T02:49:17;6.07;;;4.10;;
7334;SDS011;3708;42.632;23.378;2022-08-06T02:51:53;4.93;;;4.43;;
7334;SDS011;3708;42.632;23.378;2022-08-06T02:54:40;4.47;;;3.73;;
7334;SDS011;3708;42.632;23.378;2022-08-06T02:57:11;5.00;;;4.03;;
7334;SDS011;3708;42.632;23.378;2022-08-06T02:59:45;5.00;;;3.60;;
7334;SDS011;3708;42.632;23.378;2022-08-06T03:02:15;5.93;;;3.90;;
7334;SDS011;3708;42.632;23.378;2022-08-06T03:04:46;5.17;;;3.70;;
7334;SDS011;3708;42.632;23.378;2022-08-06T03:07:15;6.10;;;4.20;;
7334;SDS011;3708;42.632;23.378;2022-08-06T03:09:45;3.80;;;3.50;;
7334;SDS011;3708;42.632;23.378;2022-08-06T03:12:15;9.03;;;4.40;;
7334;SDS011;3708;42.632;23.378;2022-08-06T03:14:44;4.40;;;4.00;;
7334;SDS011;3708;42.632;23.378;2022-08-06T03:17:14;4.50;;;4.07;;
7334;SDS011;3708;42.632;23.378;2022-08-06T03:19:43;4.10;;;3.70;;
7334;SDS011;3708;42.632;23.378;2022-08-06T03:22:11;5.87;;;4.50;;
7334;SDS011;3708;42.632;23.378;2022-08-06T03:24:39;5.07;;;4.53;;
7334;SDS011;3708;42.632;23.378;2022-08-06T03:27:08;8.50;;;4.57;;
7334;SDS011;3708;42.632;23.378;2022-08-06T03:29:37;5.97;;;5.20;;
7334;SDS011;3708;42.632;23.378;2022-08-06T03:32:07;5.63;;;5.13;;
7334;SDS011;3708;42.632;23.378;2022-08-06T03:34:35;9.43;;;5.43;;
7334;SDS011;3708;42.632;23.378;2022-08-06T03:37:03;6.70;;;5.50;;
7334;SDS011;3708;42.632;23.378;2022-08-06T03:39:36;8.33;;;5.80;;
7334;SDS011;3708;42.632;23.378;2022-08-06T03:42:05;7.37;;;5.57;;
7334;SDS011;3708;42.632;23.378;2022-08-06T03:44:32;9.90;;;4.97;;
7334;SDS011;3708;42.632;23.378;2022-08-06T03:47:00;7.97;;;4.73;;
7334;SDS011;3708;42.632;23.378;2022-08-06T03:49:35;5.47;;;4.83;;
7334;SDS011;3708;42.632;23.378;2022-08-06T03:52:05;6.70;;;5.07;;
7334;SDS011;3708;42.632;23.378;2022-08-06T03:54:36;4.77;;;4.27;;
7334;SDS011;3708;42.632;23.378;2022-08-06T03:57:08;9.50;;;4.93;;
7334;SDS011;3708;42.632;23.378;2022-08-06T03:59:38;11.43;;;5.03;;
7334;SDS011;3708;42.632;23.378;2022-08-06T04:02:07;4.97;;;4.47;;
7334;SDS011;3708;42.632;23.378;2022-08-06T04:04:36;8.53;;;4.37;;
7334;SDS011;3708;42.632;23.378;2022-08-06T04:07:06;6.60;;;4.27;;
7334;SDS011;3708;42.632;23.378;2022-08-06T04:09:33;7.10;;;4.50;;
7334;SDS011;3708;42.632;23.378;2022-08-06T04:12:01;5.60;;;4.77;;
7334;SDS011;3708;42.632;23.378;2022-08-06T04:14:30;4.50;;;4.10;;
7334;SDS011;3708;42.632;23.378;2022-08-06T04:17:00;9.45;;;4.15;;
7334;SDS011;3708;42.632;23.378;2022-08-06T04:19:33;4.50;;;4.10;;
7334;SDS011;3708;42.632;23.378;2022-08-06T04:22:02;5.22;;;4.72;;
7334;SDS011;3708;42.632;23.378;2022-08-06T04:24:30;9.63;;;4.78;;
7334;SDS011;3708;42.632;23.378;2022-08-06T04:26:58;4.60;;;3.97;;
7334;SDS011;3708;42.632;23.378;2022-08-06T04:29:28;6.13;;;3.55;;
7334;SDS011;3708;42.632;23.378;2022-08-06T04:31:56;5.80;;;4.50;;
7334;SDS011;3708;42.632;23.378;2022-08-06T04:34:25;6.50;;;4.50;;
7334;SDS011;3708;42.632;23.378;2022-08-06T04:36:57;7.82;;;4.10;;
7334;SDS011;3708;42.632;23.378;2022-08-06T04:39:27;5.20;;;4.35;;
7334;SDS011;3708;42.632;23.378;2022-08-06T04:41:54;6.30;;;4.65;;
7334;SDS011;3708;42.632;23.378;2022-08-06T04:44:24;8.82;;;4.75;;
7334;SDS011;3708;42.632;23.378;2022-08-06T04:46:53;5.32;;;4.40;;
7334;SDS011;3708;42.632;23.378;2022-08-06T04:49:20;5.07;;;4.60;;
7334;SDS011;3708;42.632;23.378;2022-08-06T04:51:48;5.20;;;4.63;;
7334;SDS011;3708;42.632;23.378;2022-08-06T04:54:15;8.25;;;3.97;;
7334;SDS011;3708;42.632;23.378;2022-08-06T04:56:44;7.47;;;4.15;;
7334;SDS011;3708;42.632;23.378;2022-08-06T04:59:11;5.90;;;4.55;;
7334;SDS011;3708;42.632;23.378;2022-08-06T05:01:38;7.97;;;4.10;;
7334;SDS011;3708;42.632;23.378;2022-08-06T05:04:05;4.78;;;4.28;;
7334;SDS011;3708;42.632;23.378;2022-08-06T05:06:35;5.80;;;4.47;;
7334;SDS011;3708;42.632;23.378;2022-08-06T05:09:10;7.53;;;4.75;;
7334;SDS011;3708;42.632;23.378;2022-08-06T05:11:40;7.50;;;4.40;;
7334;SDS011;3708;42.632;23.378;2022-08-06T05:14:13;5.57;;;4.38;;
7334;SDS011;3708;42.632;23.378;2022-08-06T05:16:43;7.88;;;5.00;;
7334;SDS011;3708;42.632;23.378;2022-08-06T05:19:15;7.47;;;5.20;;
7334;SDS011;3708;42.632;23.378;2022-08-06T05:21:46;7.63;;;4.70;;
7334;SDS011;3708;42.632;23.378;2022-08-06T05:24:13;6.55;;;5.00;;
7334;SDS011;3708;42.632;23.378;2022-08-06T05:26:41;5.45;;;4.95;;
7334;SDS011;3708;42.632;23.378;2022-08-06T05:29:08;7.82;;;4.90;;
7334;SDS011;3708;42.632;23.378;2022-08-06T05:31:37;5.38;;;4.88;;
7334;SDS011;3708;42.632;23.378;2022-08-06T05:34:08;5.60;;;5.07;;
7334;SDS011;3708;42.632;23.378;2022-08-06T05:36:37;6.70;;;5.70;;
7334;SDS011;3708;42.632;23.378;2022-08-06T05:39:04;5.32;;;4.63;;
7334;SDS011;3708;42.632;23.378;2022-08-06T05:41:32;6.15;;;4.65;;
7334;SDS011;3708;42.632;23.378;2022-08-06T05:44:00;7.20;;;4.93;;
7334;SDS011;3708;42.632;23.378;2022-08-06T05:46:28;8.77;;;4.90;;
7334;SDS011;3708;42.632;23.378;2022-08-06T05:49:02;6.15;;;5.25;;
7334;SDS011;3708;42.632;23.378;2022-08-06T05:51:33;7.18;;;4.55;;
7334;SDS011;3708;42.632;23.378;2022-08-06T05:54:06;8.90;;;6.03;;
7334;SDS011;3708;42.632;23.378;2022-08-06T05:56:39;7.13;;;5.40;;
7334;SDS011;3708;42.632;23.378;2022-08-06T05:59:11;8.10;;;5.35;;
7334;SDS011;3708;42.632;23.378;2022-08-06T06:01:43;6.60;;;5.55;;
7334;SDS011;3708;42.632;23.378;2022-08-06T06:04:13;10.00;;;5.80;;
7334;SDS011;3708;42.632;23.378;2022-08-06T06:06:41;6.28;;;5.20;;
7334;SDS011;3708;42.632;23.378;2022-08-06T06:09:10;6.05;;;5.20;;
7334;SDS011;3708;42.632;23.378;2022-08-06T06:11:39;10.25;;;6.00;;
7334;SDS011;3708;42.632;23.378;2022-08-06T06:14:09;7.97;;;5.40;;
7334;SDS011;3708;42.632;23.378;2022-08-06T06:16:53;11.23;;;5.88;;
7334;SDS011;3708;42.632;23.378;2022-08-06T06:19:31;9.95;;;5.13;;
7334;SDS011;3708;42.632;23.378;2022-08-06T06:22:07;7.03;;;5.65;;
7334;SDS011;3708;42.632;23.378;2022-08-06T06:24:45;8.65;;;5.97;;
7334;SDS011;3708;42.632;23.378;2022-08-06T06:27:17;8.95;;;6.10;;
7334;SDS011;3708;42.632;23.378;2022-08-06T06:29:51;6.47;;;5.60;;
7334;SDS011;3708;42.632;23.378;2022-08-06T06:32:27;8.70;;;6.50;;
7334;SDS011;3708;42.632;23.378;2022-08-06T06:35:07;7.25;;;6.30;;
7334;SDS011;3708;42.632;23.378;2022-08-06T06:37:46;7.93;;;5.82;;
7334;SDS011;3708;42.632;23.378;2022-08-06T06:40:29;7.18;;;5.95;;
7334;SDS011;3708;42.632;23.378;2022-08-06T06:43:14;7.40;;;5.72;;
7334;SDS011;3708;42.632;23.378;2022-08-06T06:45:48;5.82;;;5.25;;
7334;SDS011;3708;42.632;23.378;2022-08-06T06:48:22;17.73;;;6.45;;
7334;SDS011;3708;42.632;23.378;2022-08-06T06:50:57;11.70;;;6.03;;
7334;SDS011;3708;42.632;23.378;2022-08-06T06:53:28;7.68;;;6.32;;
7334;SDS011;3708;42.632;23.378;2022-08-06T06:55:59;6.82;;;5.75;;
7334;SDS011;3708;42.632;23.378;2022-08-06T06:58:30;8.18;;;5.63;;
7334;SDS011;3708;42.632;23.378;2022-08-06T07:01:02;6.72;;;5.70;;
7334;SDS011;3708;42.632;23.378;2022-08-06T07:03:31;7.85;;;6.00;;
7334;SDS011;3708;42.632;23.378;2022-08-06T07:06:02;9.15;;;5.47;;
7334;SDS011;3708;42.632;23.378;2022-08-06T07:08:35;11.18;;;6.13;;
7334;SDS011;3708;42.632;23.378;2022-08-06T07:11:10;6.60;;;5.07;;
7334;SDS011;3708;42.632;23.378;2022-08-06T07:13:40;9.38;;;5.30;;
7334;SDS011;3708;42.632;23.378;2022-08-06T07:16:09;8.95;;;5.18;;
7334;SDS011;3708;42.632;23.378;2022-08-06T07:18:38;7.65;;;5.10;;
7334;SDS011;3708;42.632;23.378;2022-08-06T07:21:07;9.60;;;5.90;;
7334;SDS011;3708;42.632;23.378;2022-08-06T07:23:34;8.10;;;5.75;;
7334;SDS011;3708;42.632;23.378;2022-08-06T07:26:02;8.40;;;5.50;;
7334;SDS011;3708;42.632;23.378;2022-08-06T07:28:31;8.20;;;6.22;;
7334;SDS011;3708;42.632;23.378;2022-08-06T07:30:59;8.63;;;5.97;;
7334;SDS011;3708;42.632;23.378;2022-08-06T07:33:29;10.55;;;5.55;;
7334;SDS011;3708;42.632;23.378;2022-08-06T07:35:57;7.50;;;5.40;;
7334;SDS011;3708;42.632;23.378;2022-08-06T07:38:27;11.30;;;5.90;;
7334;SDS011;3708;42.632;23.378;2022-08-06T07:40:59;9.13;;;5.15;;
7334;SDS011;3708;42.632;23.378;2022-08-06T07:43:30;8.05;;;6.03;;
7334;SDS011;3708;42.632;23.378;2022-08-06T07:46:02;6.95;;;6.15;;
7334;SDS011;3708;42.632;23.378;2022-08-06T07:48:31;6.45;;;5.43;;
7334;SDS011;3708;42.632;23.378;2022-08-06T07:51:03;9.57;;;6.72;;
7334;SDS011;3708;42.632;23.378;2022-08-06T07:53:34;8.70;;;5.28;;
7334;SDS011;3708;42.632;23.378;2022-08-06T07:56:03;9.65;;;5.20;;
7334;SDS011;3708;42.632;23.378;2022-08-06T07:58:31;9.20;;;5.35;;
7334;SDS011;3708;42.632;23.378;2022-08-06T08:01:00;12.30;;;5.72;;
7334;SDS011;3708;42.632;23.378;2022-08-06T08:03:28;8.75;;;5.50;;
7334;SDS011;3708;42.632;23.378;2022-08-06T08:06:12;8.40;;;5.63;;
7334;SDS011;3708;42.632;23.378;2022-08-06T08:08:52;8.27;;;5.38;;
7334;SDS011;3708;42.632;23.378;2022-08-06T08:11:21;7.65;;;5.60;;
7334;SDS011;3708;42.632;23.378;2022-08-06T08:13:50;6.85;;;4.97;;
7334;SDS011;3708;42.632;23.378;2022-08-06T08:16:19;5.20;;;4.70;;
7334;SDS011;3708;42.632;23.378;2022-08-06T08:18:48;7.05;;;4.95;;
7334;SDS011;3708;42.632;23.378;2022-08-06T08:21:15;6.70;;;4.40;;
7334;SDS011;3708;42.632;23.378;2022-08-06T08:23:43;4.90;;;4.40;;
7334;SDS011;3708;42.632;23.378;2022-08-06T08:26:13;5.25;;;4.80;;
7334;SDS011;3708;42.632;23.378;2022-08-06T08:28:40;7.95;;;4.82;;
7334;SDS011;3708;42.632;23.378;2022-08-06T08:31:07;6.90;;;4.70;;
7334;SDS011;3708;42.632;23.378;2022-08-06T08:33:36;6.22;;;5.05;;
7334;SDS011;3708;42.632;23.378;2022-08-06T08:36:04;4.78;;;4.18;;
7334;SDS011;3708;42.632;23.378;2022-08-06T08:38:33;7.03;;;4.38;;
7334;SDS011;3708;42.632;23.378;2022-08-06T08:41:01;7.38;;;4.45;;
7334;SDS011;3708;42.632;23.378;2022-08-06T08:43:33;4.80;;;3.92;;
7334;SDS011;3708;42.632;23.378;2022-08-06T08:46:03;7.80;;;4.00;;
7334;SDS011;3708;42.632;23.378;2022-08-06T08:48:33;6.43;;;3.53;;
7334;SDS011;3708;42.632;23.378;2022-08-06T08:51:01;4.65;;;3.50;;
7334;SDS011;3708;42.632;23.378;2022-08-06T08:53:29;4.22;;;3.60;;
7334;SDS011;3708;42.632;23.378;2022-08-06T08:56:02;6.90;;;3.95;;
7334;SDS011;3708;42.632;23.378;2022-08-06T08:58:32;4.70;;;3.08;;
7334;SDS011;3708;42.632;23.378;2022-08-06T09:01:02;4.60;;;3.40;;
7334;SDS011;3708;42.632;23.378;2022-08-06T09:03:34;4.07;;;3.25;;
7334;SDS011;3708;42.632;23.378;2022-08-06T09:06:02;5.22;;;2.97;;
7334;SDS011;3708;42.632;23.378;2022-08-06T09:08:30;3.72;;;3.40;;
7334;SDS011;3708;42.632;23.378;2022-08-06T09:10:57;4.30;;;3.35;;
7334;SDS011;3708;42.632;23.378;2022-08-06T09:13:24;4.32;;;3.00;;
7334;SDS011;3708;42.632;23.378;2022-08-06T09:15:53;4.45;;;3.60;;
7334;SDS011;3708;42.632;23.378;2022-08-06T09:18:20;6.45;;;3.60;;
7334;SDS011;3708;42.632;23.378;2022-08-06T09:20:48;6.50;;;3.35;;
7334;SDS011;3708;42.632;23.378;2022-08-06T09:23:15;4.15;;;2.78;;
7334;SDS011;3708;42.632;23.378;2022-08-06T09:25:43;5.85;;;3.30;;
7334;SDS011;3708;42.632;23.378;2022-08-06T09:28:28;5.80;;;3.55;;
7334;SDS011;3708;42.632;23.378;2022-08-06T09:30:58;4.25;;;3.45;;
7334;SDS011;3708;42.632;23.378;2022-08-06T09:33:28;10.18;;;3.78;;
7334;SDS011;3708;42.632;23.378;2022-08-06T09:36:00;3.50;;;3.10;;
7334;SDS011;3708;42.632;23.378;2022-08-06T09:38:28;6.80;;;3.97;;
7334;SDS011;3708;42.632;23.378;2022-08-06T09:41:05;7.65;;;3.95;;
7334;SDS011;3708;42.632;23.378;2022-08-06T09:43:34;8.43;;;3.35;;
7334;SDS011;3708;42.632;23.378;2022-08-06T09:46:03;6.47;;;3.50;;
7334;SDS011;3708;42.632;23.378;2022-08-06T09:48:31;3.42;;;3.10;;
7334;SDS011;3708;42.632;23.378;2022-08-06T09:50:59;6.80;;;3.97;;
7334;SDS011;3708;42.632;23.378;2022-08-06T09:53:27;3.80;;;3.30;;
7334;SDS011;3708;42.632;23.378;2022-08-06T09:55:55;9.45;;;3.53;;
7334;SDS011;3708;42.632;23.378;2022-08-06T09:58:28;6.38;;;3.25;;
7334;SDS011;3708;42.632;23.378;2022-08-06T10:01:14;3.90;;;3.20;;
7334;SDS011;3708;42.632;23.378;2022-08-06T10:04:01;3.47;;;3.17;;
7334;SDS011;3708;42.632;23.378;2022-08-06T10:06:28;5.38;;;3.40;;
7334;SDS011;3708;42.632;23.378;2022-08-06T10:09:05;5.38;;;3.47;;
7334;SDS011;3708;42.632;23.378;2022-08-06T10:11:34;4.47;;;3.33;;
7334;SDS011;3708;42.632;23.378;2022-08-06T10:14:02;6.32;;;2.90;;
7334;SDS011;3708;42.632;23.378;2022-08-06T10:16:31;4.05;;;2.72;;
7334;SDS011;3708;42.632;23.378;2022-08-06T10:18:58;3.10;;;2.83;;
7334;SDS011;3708;42.632;23.378;2022-08-06T10:21:29;4.28;;;3.28;;
7334;SDS011;3708;42.632;23.378;2022-08-06T10:24:00;4.38;;;2.78;;
7334;SDS011;3708;42.632;23.378;2022-08-06T10:26:30;7.32;;;3.38;;
7334;SDS011;3708;42.632;23.378;2022-08-06T10:29:00;5.00;;;3.28;;
7334;SDS011;3708;42.632;23.378;2022-08-06T10:31:31;5.63;;;2.85;;
7334;SDS011;3708;42.632;23.378;2022-08-06T10:34:00;4.90;;;3.05;;
7334;SDS011;3708;42.632;23.378;2022-08-06T10:36:34;3.03;;;2.58;;
7334;SDS011;3708;42.632;23.378;2022-08-06T10:39:03;4.80;;;2.78;;
7334;SDS011;3708;42.632;23.378;2022-08-06T10:41:31;4.32;;;3.10;;
7334;SDS011;3708;42.632;23.378;2022-08-06T10:44:00;4.60;;;3.03;;
7334;SDS011;3708;42.632;23.378;2022-08-06T10:46:28;3.95;;;2.92;;
7334;SDS011;3708;42.632;23.378;2022-08-06T10:48:58;6.18;;;3.58;;
7334;SDS011;3708;42.632;23.378;2022-08-06T10:51:26;4.40;;;3.08;;
7334;SDS011;3708;42.632;23.378;2022-08-06T10:53:53;4.15;;;2.90;;
7334;SDS011;3708;42.632;23.378;2022-08-06T10:56:20;3.78;;;2.85;;
7334;SDS011;3708;42.632;23.378;2022-08-06T10:58:50;4.18;;;3.10;;
7334;SDS011;3708;42.632;23.378;2022-08-06T11:01:19;4.57;;;3.10;;
7334;SDS011;3708;42.632;23.378;2022-08-06T11:04:11;4.10;;;3.20;;
7334;SDS011;3708;42.632;23.378;2022-08-06T11:06:59;6.20;;;3.20;;
7334;SDS011;3708;42.632;23.378;2022-08-06T11:12:39;3.83;;;3.40;;
7334;SDS011;3708;42.632;23.378;2022-08-06T11:15:13;3.78;;;3.08;;
7334;SDS011;3708;42.632;23.378;2022-08-06T11:17:41;4.20;;;2.80;;
7334;SDS011;3708;42.632;23.378;2022-08-06T11:20:22;3.17;;;2.88;;
7334;SDS011;3708;42.632;23.378;2022-08-06T11:23:02;4.00;;;3.10;;
7334;SDS011;3708;42.632;23.378;2022-08-06T11:25:36;4.20;;;3.25;;
7334;SDS011;3708;42.632;23.378;2022-08-06T11:28:04;6.03;;;3.20;;
7334;SDS011;3708;42.632;23.378;2022-08-06T11:30:36;3.25;;;2.85;;
7334;SDS011;3708;42.632;23.378;2022-08-06T11:33:04;3.45;;;3.15;;
7334;SDS011;3708;42.632;23.378;2022-08-06T11:35:39;4.90;;;2.78;;
7334;SDS011;3708;42.632;23.378;2022-08-06T11:38:09;5.55;;;3.47;;
7334;SDS011;3708;42.632;23.378;2022-08-06T11:40:55;4.50;;;2.90;;
7334;SDS011;3708;42.632;23.378;2022-08-06T11:43:42;6.70;;;2.97;;
7334;SDS011;3708;42.632;23.378;2022-08-06T11:46:22;3.33;;;2.75;;
7334;SDS011;3708;42.632;23.378;2022-08-06T11:51:46;4.32;;;3.38;;
7334;SDS011;3708;42.632;23.378;2022-08-06T11:54:15;5.60;;;3.20;;
7334;SDS011;3708;42.632;23.378;2022-08-06T11:59:45;5.95;;;3.63;;
7334;SDS011;3708;42.632;23.378;2022-08-06T12:02:15;5.07;;;3.40;;
7334;SDS011;3708;42.632;23.378;2022-08-06T12:04:44;7.50;;;3.03;;
7334;SDS011;3708;42.632;23.378;2022-08-06T12:07:21;3.95;;;3.58;;
7334;SDS011;3708;42.632;23.378;2022-08-06T12:09:58;5.22;;;3.78;;
7334;SDS011;3708;42.632;23.378;2022-08-06T12:12:35;4.30;;;3.35;;
7334;SDS011;3708;42.632;23.378;2022-08-06T12:15:04;7.03;;;3.25;;
7334;SDS011;3708;42.632;23.378;2022-08-06T12:18:02;5.72;;;3.78;;
7334;SDS011;3708;42.632;23.378;2022-08-06T12:20:31;6.10;;;2.78;;
7334;SDS011;3708;42.632;23.378;2022-08-06T12:23:02;3.95;;;3.22;;
7334;SDS011;3708;42.632;23.378;2022-08-06T12:25:31;3.63;;;3.30;;
7334;SDS011;3708;42.632;23.378;2022-08-06T12:27:59;5.68;;;3.63;;
7334;SDS011;3708;42.632;23.378;2022-08-06T12:30:26;3.25;;;2.95;;
7334;SDS011;3708;42.632;23.378;2022-08-06T12:32:58;3.50;;;3.20;;
7334;SDS011;3708;42.632;23.378;2022-08-06T12:35:26;6.07;;;3.28;;
7334;SDS011;3708;42.632;23.378;2022-08-06T12:37:53;5.38;;;3.55;;
7334;SDS011;3708;42.632;23.378;2022-08-06T12:40:22;4.35;;;3.28;;
7334;SDS011;3708;42.632;23.378;2022-08-06T12:43:08;6.38;;;3.42;;
7334;SDS011;3708;42.632;23.378;2022-08-06T12:45:36;5.28;;;3.50;;
7334;SDS011;3708;42.632;23.378;2022-08-06T12:48:05;3.72;;;3.33;;
7334;SDS011;3708;42.632;23.378;2022-08-06T12:50:35;5.93;;;3.03;;
7334;SDS011;3708;42.632;23.378;2022-08-06T12:53:05;4.55;;;3.63;;
7334;SDS011;3708;42.632;23.378;2022-08-06T12:55:42;5.32;;;3.22;;
7334;SDS011;3708;42.632;23.378;2022-08-06T12:58:15;4.10;;;3.20;;
7334;SDS011;3708;42.632;23.378;2022-08-06T13:00:49;6.15;;;3.58;;
7334;SDS011;3708;42.632;23.378;2022-08-06T13:03:19;4.88;;;3.25;;
7334;SDS011;3708;42.632;23.378;2022-08-06T13:05:49;7.72;;;3.58;;
7334;SDS011;3708;42.632;23.378;2022-08-06T13:08:18;3.72;;;3.15;;
7334;SDS011;3708;42.632;23.378;2022-08-06T13:10:48;3.72;;;3.40;;
7334;SDS011;3708;42.632;23.378;2022-08-06T13:13:16;5.45;;;3.08;;
7334;SDS011;3708;42.632;23.378;2022-08-06T13:15:57;3.15;;;2.85;;
7334;SDS011;3708;42.632;23.378;2022-08-06T13:18:25;8.82;;;3.40;;
7334;SDS011;3708;42.632;23.378;2022-08-06T13:20:53;3.50;;;3.20;;
7334;SDS011;3708;42.632;23.378;2022-08-06T13:23:27;3.90;;;3.17;;
7334;SDS011;3708;42.632;23.378;2022-08-06T13:25:56;5.05;;;3.25;;
7334;SDS011;3708;42.632;23.378;2022-08-06T13:28:23;3.40;;;3.10;;
7334;SDS011;3708;42.632;23.378;2022-08-06T13:30:50;6.40;;;3.00;;
7334;SDS011;3708;42.632;23.378;2022-08-06T13:33:19;4.63;;;3.17;;
7334;SDS011;3708;42.632;23.378;2022-08-06T13:35:48;3.10;;;2.83;;
7334;SDS011;3708;42.632;23.378;2022-08-06T13:38:25;4.70;;;3.22;;
7334;SDS011;3708;42.632;23.378;2022-08-06T13:40:53;6.55;;;3.15;;
7334;SDS011;3708;42.632;23.378;2022-08-06T13:43:32;3.25;;;2.95;;
7334;SDS011;3708;42.632;23.378;2022-08-06T13:46:03;3.50;;;3.17;;
7334;SDS011;3708;42.632;23.378;2022-08-06T13:48:31;4.18;;;3.20;;
7334;SDS011;3708;42.632;23.378;2022-08-06T13:50:58;4.70;;;3.28;;
7334;SDS011;3708;42.632;23.378;2022-08-06T13:53:25;3.78;;;3.47;;
7334;SDS011;3708;42.632;23.378;2022-08-06T13:55:52;6.43;;;3.30;;
7334;SDS011;3708;42.632;23.378;2022-08-06T13:58:19;3.47;;;3.00;;
7334;SDS011;3708;42.632;23.378;2022-08-06T14:00:47;4.53;;;2.97;;
7334;SDS011;3708;42.632;23.378;2022-08-06T14:03:14;4.40;;;3.20;;
7334;SDS011;3708;42.632;23.378;2022-08-06T14:05:41;5.90;;;3.55;;
7334;SDS011;3708;42.632;23.378;2022-08-06T14:08:08;4.07;;;3.08;;
7334;SDS011;3708;42.632;23.378;2022-08-06T14:10:35;3.90;;;2.88;;
7334;SDS011;3708;42.632;23.378;2022-08-06T14:13:02;3.45;;;3.15;;
7334;SDS011;3708;42.632;23.378;2022-08-06T14:15:45;6.50;;;3.40;;
7334;SDS011;3708;42.632;23.378;2022-08-06T14:18:14;5.57;;;3.50;;
7334;SDS011;3708;42.632;23.378;2022-08-06T14:20:42;9.13;;;3.40;;
7334;SDS011;3708;42.632;23.378;2022-08-06T14:23:09;6.32;;;3.50;;
7334;SDS011;3708;42.632;23.378;2022-08-06T14:25:36;3.10;;;2.80;;
7334;SDS011;3708;42.632;23.378;2022-08-06T14:28:03;4.00;;;3.25;;
7334;SDS011;3708;42.632;23.378;2022-08-06T14:30:31;4.35;;;3.30;;
7334;SDS011;3708;42.632;23.378;2022-08-06T14:32:59;3.40;;;3.10;;
7334;SDS011;3708;42.632;23.378;2022-08-06T14:35:28;4.60;;;3.55;;
7334;SDS011;3708;42.632;23.378;2022-08-06T14:37:55;4.68;;;3.40;;
7334;SDS011;3708;42.632;23.378;2022-08-06T14:40:23;4.03;;;3.72;;
7334;SDS011;3708;42.632;23.378;2022-08-06T14:43:06;5.22;;;3.53;;
7334;SDS011;3708;42.632;23.378;2022-08-06T14:45:51;5.32;;;3.55;;
7334;SDS011;3708;42.632;23.378;2022-08-06T14:48:18;7.43;;;3.95;;
7334;SDS011;3708;42.632;23.378;2022-08-06T14:50:46;3.20;;;2.90;;
7334;SDS011;3708;42.632;23.378;2022-08-06T14:53:13;3.70;;;3.40;;
7334;SDS011;3708;42.632;23.378;2022-08-06T14:55:40;4.18;;;3.40;;
7334;SDS011;3708;42.632;23.378;2022-08-06T14:58:07;4.97;;;3.20;;
7334;SDS011;3708;42.632;23.378;2022-08-06T15:00:34;4.75;;;3.50;;
7334;SDS011;3708;42.632;23.378;2022-08-06T15:03:01;6.05;;;3.70;;
7334;SDS011;3708;42.632;23.378;2022-08-06T15:05:28;4.10;;;3.70;;
7334;SDS011;3708;42.632;23.378;2022-08-06T15:08:08;5.07;;;3.28;;
7334;SDS011;3708;42.632;23.378;2022-08-06T15:10:35;7.93;;;3.70;;
7334;SDS011;3708;42.632;23.378;2022-08-06T15:13:02;6.45;;;2.92;;
7334;SDS011;3708;42.632;23.378;2022-08-06T15:15:29;7.82;;;3.30;;
7334;SDS011;3708;42.632;23.378;2022-08-06T15:17:56;6.40;;;3.38;;
7334;SDS011;3708;42.632;23.378;2022-08-06T15:20:23;5.10;;;4.20;;
7334;SDS011;3708;42.632;23.378;2022-08-06T15:22:50;4.30;;;3.25;;
7334;SDS011;3708;42.632;23.378;2022-08-06T15:25:18;5.47;;;3.70;;
7334;SDS011;3708;42.632;23.378;2022-08-06T15:27:46;5.20;;;3.70;;
7334;SDS011;3708;42.632;23.378;2022-08-06T15:30:13;4.57;;;3.28;;